createdAt,value
2018-09-13T00:00:20.279Z,20.27
2018-09-13T00:02:50.565Z,21.53
2018-09-13T00:05:19.675Z,21.17
2018-09-13T00:07:51.421Z,20.47
2018-09-13T00:10:20.481Z,20.63
2018-09-13T00:12:49.364Z,21.67
2018-09-13T00:15:18.261Z,21.07
2018-09-13T00:17:47.425Z,20.33
2018-09-13T00:20:16.359Z,21.87
2018-09-13T00:22:45.402Z,19.67
2018-09-13T00:25:14.371Z,20.70
2018-09-13T00:27:43.438Z,19.07
2018-09-13T00:30:12.336Z,19.93
2018-09-13T00:32:41.415Z,19.60
2018-09-13T00:35:10.406Z,19.57
2018-09-13T00:37:39.256Z,17.07
2018-09-13T00:40:08.389Z,17.70
2018-09-13T00:42:37.366Z,17.90
2018-09-13T00:45:06.217Z,18.50
2018-09-13T00:47:35.192Z,17.90
2018-09-13T00:50:04.203Z,18.93
2018-09-13T00:52:33.534Z,20.50
2018-09-13T00:55:02.341Z,18.83
2018-09-13T00:57:31.512Z,17.60
2018-09-13T01:00:00.538Z,18.57
2018-09-13T01:02:29.414Z,17.57
2018-09-13T01:04:58.272Z,17.27
2018-09-13T01:07:27.125Z,17.17
2018-09-13T01:09:55.989Z,15.83
2018-09-13T01:12:25.544Z,16.10
2018-09-13T01:14:54.490Z,16.57
2018-09-13T01:17:23.432Z,15.90
2018-09-13T01:19:52.258Z,15.33
2018-09-13T01:22:21.168Z,16.63
2018-09-13T01:24:54.139Z,15.90
2018-09-13T01:27:23.651Z,15.13
2018-09-13T01:29:52.809Z,14.73
2018-09-13T01:32:21.931Z,14.50
2018-09-13T01:34:51.092Z,14.73
2018-09-13T01:37:20.242Z,15.40
2018-09-13T01:39:49.459Z,15.43
2018-09-13T01:42:18.419Z,15.20
2018-09-13T01:44:47.240Z,16.20
2018-09-13T01:47:16.423Z,16.53
2018-09-13T01:49:45.250Z,16.17
2018-09-13T01:52:14.150Z,15.70
2018-09-13T01:54:42.996Z,16.53
2018-09-13T01:57:11.874Z,15.70
2018-09-13T01:59:40.858Z,15.53
2018-09-13T02:02:09.786Z,15.70
2018-09-13T02:04:38.571Z,15.93
2018-09-13T02:07:07.921Z,15.07
2018-09-13T02:09:36.809Z,15.00
2018-09-13T02:12:05.718Z,16.80
2018-09-13T02:14:35.379Z,16.23
2018-09-13T02:17:04.326Z,15.93
2018-09-13T02:19:33.218Z,16.43
2018-09-13T02:22:02.024Z,16.13
2018-09-13T02:24:30.900Z,16.47
2018-09-13T02:26:59.767Z,16.70
2018-09-13T02:29:28.859Z,16.37
2018-09-13T02:31:57.870Z,15.40
2018-09-13T02:34:26.904Z,16.67
2018-09-13T02:36:55.704Z,16.70
2018-09-13T02:39:24.555Z,16.93
2018-09-13T02:41:53.498Z,15.77
2018-09-13T02:44:22.361Z,16.47
2018-09-13T02:46:51.210Z,16.03
2018-09-13T02:49:20.122Z,17.57
2018-09-13T02:51:48.952Z,16.07
2018-09-13T02:54:18.080Z,16.83
2018-09-13T02:56:46.928Z,16.13
2018-09-13T02:59:15.878Z,17.33
2018-09-13T03:01:44.779Z,15.97
2018-09-13T03:04:13.629Z,17.60
2018-09-13T03:06:42.506Z,15.27
2018-09-13T03:09:12.968Z,16.93
2018-09-13T03:11:43.264Z,16.40
2018-09-13T03:14:12.774Z,16.57
2018-09-13T03:16:42.078Z,17.67
2018-09-13T03:19:10.997Z,17.83
2018-09-13T03:21:39.917Z,17.67
2018-09-13T03:24:08.760Z,17.53
2018-09-13T03:26:37.559Z,18.07
2018-09-13T03:29:06.726Z,17.00
2018-09-13T03:31:35.747Z,17.53
2018-09-13T03:34:04.701Z,17.70
2018-09-13T03:36:33.522Z,16.30
2018-09-13T03:39:02.700Z,18.47
2018-09-13T03:41:31.559Z,18.10
2018-09-13T03:44:00.417Z,18.40
2018-09-13T03:46:29.229Z,18.10
2018-09-13T03:48:58.135Z,18.07
2018-09-13T03:51:26.934Z,18.53
2018-09-13T03:53:55.752Z,17.63
2018-09-13T03:56:24.600Z,17.80
2018-09-13T03:58:53.520Z,18.07
2018-09-13T04:01:22.338Z,18.07
2018-09-13T04:03:51.318Z,19.40
2018-09-13T04:06:21.010Z,18.67
2018-09-13T04:08:50.188Z,18.70
2018-09-13T04:11:18.982Z,19.37
2018-09-13T04:13:48.398Z,18.50
2018-09-13T04:16:17.258Z,19.87
2018-09-13T04:18:46.130Z,19.63
2018-09-13T04:21:15.039Z,19.57
2018-09-13T04:23:44.421Z,20.47
2018-09-13T04:26:13.260Z,20.50
2018-09-13T04:28:42.500Z,19.80
2018-09-13T04:31:11.747Z,20.50
2018-09-13T04:33:40.640Z,21.30
2018-09-13T04:36:09.850Z,19.83
2018-09-13T04:38:38.639Z,20.77
2018-09-13T04:41:07.911Z,20.73
2018-09-13T04:43:37.134Z,20.10
2018-09-13T04:46:06.298Z,21.43
2018-09-13T04:48:35.123Z,19.70
2018-09-13T04:51:04.182Z,20.27
2018-09-13T04:53:33.344Z,20.03
2018-09-13T04:56:02.208Z,18.80
2018-09-13T04:58:31.096Z,18.97
2018-09-13T05:01:00.787Z,20.33
2018-09-13T05:03:29.776Z,19.93
2018-09-13T05:05:58.738Z,21.40
2018-09-13T05:08:27.637Z,21.23
2018-09-13T05:10:56.693Z,21.87
2018-09-13T05:13:25.739Z,21.20
2018-09-13T05:15:54.693Z,21.03
2018-09-13T05:18:23.738Z,21.53
2018-09-13T05:20:52.740Z,22.57
2018-09-13T05:23:21.571Z,22.63
2018-09-13T05:25:50.581Z,22.33
2018-09-13T05:28:19.468Z,22.07
2018-09-13T05:30:48.522Z,21.97
2018-09-13T05:33:17.455Z,22.30
2018-09-13T05:35:46.395Z,23.20
2018-09-13T05:38:15.277Z,21.47
2018-09-13T05:40:47.024Z,22.57
2018-09-13T05:43:15.961Z,22.63
2018-09-13T05:45:45.421Z,22.70
2018-09-13T05:48:14.258Z,24.03
2018-09-13T05:50:43.093Z,22.70
2018-09-13T05:53:11.934Z,23.03
2018-09-13T05:55:40.819Z,24.10
2018-09-13T05:58:09.690Z,21.93
2018-09-13T06:00:38.572Z,22.30
2018-09-13T06:03:07.887Z,22.67
2018-09-13T06:05:36.780Z,23.03
2018-09-13T06:08:05.916Z,22.20
2018-09-13T06:10:34.999Z,22.17
2018-09-13T06:13:04.019Z,22.10
2018-09-13T06:15:32.932Z,23.70
2018-09-13T06:18:01.769Z,22.93
2018-09-13T06:20:30.730Z,22.83
2018-09-13T06:22:59.745Z,22.33
2018-09-13T06:25:28.631Z,21.73
2018-09-13T06:27:57.620Z,21.70
2018-09-13T06:30:26.763Z,22.53
2018-09-13T06:32:55.809Z,21.60
2018-09-13T06:35:24.929Z,22.70
2018-09-13T06:37:53.917Z,21.90
2018-09-13T06:40:22.738Z,22.30
2018-09-13T06:42:51.668Z,22.07
2018-09-13T06:45:20.931Z,22.03
2018-09-13T06:47:50.523Z,23.53
2018-09-13T06:50:19.686Z,21.60
2018-09-13T06:52:48.676Z,22.77
2018-09-13T06:55:17.772Z,22.97
2018-09-13T06:57:46.822Z,23.47
2018-09-13T07:00:16.750Z,23.67
2018-09-13T07:02:45.619Z,21.73
2018-09-13T07:05:14.694Z,24.23
2018-09-13T07:07:43.797Z,23.20
2018-09-13T07:10:12.731Z,24.30
2018-09-13T07:12:41.702Z,27.30
2018-09-13T07:15:11.500Z,26.80
2018-09-13T07:17:40.560Z,25.03
2018-09-13T07:20:09.711Z,25.40
2018-09-13T07:22:38.780Z,24.23
2018-09-13T07:25:08.072Z,22.83
2018-09-13T07:27:37.179Z,21.30
2018-09-13T07:30:06.279Z,21.07
2018-09-13T07:32:35.368Z,20.90
2018-09-13T07:35:04.707Z,20.90
2018-09-13T07:37:33.835Z,20.50
2018-09-13T07:40:02.811Z,20.07
2018-09-13T07:42:31.942Z,19.10
2018-09-13T07:45:01.209Z,18.23
2018-09-13T07:47:30.133Z,19.27
2018-09-13T07:49:59.233Z,18.17
2018-09-13T07:52:28.420Z,20.13
2018-09-13T07:54:57.250Z,27.80
2018-09-13T07:57:27.089Z,24.90
2018-09-13T07:59:56.218Z,21.70
2018-09-13T08:02:25.340Z,20.60
2018-09-13T08:04:54.262Z,19.80
2018-09-13T08:07:23.152Z,19.13
2018-09-13T08:09:52.038Z,20.67
2018-09-13T08:12:21.026Z,20.03
2018-09-13T08:14:50.120Z,20.20
2018-09-13T08:17:19.037Z,21.37
2018-09-13T08:19:47.945Z,22.90
2018-09-13T08:22:17.563Z,21.80
2018-09-13T08:24:46.481Z,21.37
2018-09-13T08:27:15.838Z,26.03
2018-09-13T08:29:45.067Z,22.50
2018-09-13T08:32:14.016Z,23.40
2018-09-13T08:34:43.090Z,22.50
2018-09-13T08:37:12.297Z,22.37
2018-09-13T08:39:41.496Z,23.07
2018-09-13T08:42:10.598Z,24.90
2018-09-13T08:44:46.232Z,25.00
2018-09-13T08:47:15.394Z,26.77
2018-09-13T08:49:44.420Z,26.27
2018-09-13T08:52:13.665Z,23.57
2018-09-13T08:54:42.651Z,24.90
2018-09-13T08:57:11.581Z,23.37
2018-09-13T08:59:40.661Z,23.50
2018-09-13T09:02:09.854Z,22.67
2018-09-13T09:04:38.914Z,23.73
2018-09-13T09:07:08.024Z,24.00
2018-09-13T09:09:37.285Z,23.17
2018-09-13T09:12:06.623Z,22.23
2018-09-13T09:14:35.795Z,24.67
2018-09-13T09:17:05.022Z,23.93
2018-09-13T09:19:34.037Z,27.10
2018-09-13T09:22:03.198Z,27.30
2018-09-13T09:24:32.329Z,25.77
2018-09-13T09:27:01.284Z,27.47
2018-09-13T09:29:30.668Z,28.33
2018-09-13T09:31:59.773Z,26.63
2018-09-13T09:34:28.834Z,26.23
2018-09-13T09:36:57.952Z,25.00
2018-09-13T09:39:26.909Z,26.97
2018-09-13T09:41:56.223Z,27.00
2018-09-13T09:44:25.196Z,27.80
2018-09-13T09:46:54.369Z,28.47
2018-09-13T09:49:23.523Z,27.97
2018-09-13T09:51:52.801Z,26.47
2018-09-13T09:54:21.762Z,27.47
2018-09-13T09:56:51.019Z,26.23
2018-09-13T09:59:20.058Z,25.33
2018-09-13T10:01:54.388Z,25.37
2018-09-13T10:04:23.434Z,24.33
2018-09-13T10:06:52.488Z,23.20
2018-09-13T10:09:21.625Z,23.73
2018-09-13T10:11:50.665Z,24.43
2018-09-13T10:14:19.671Z,24.23
2018-09-13T10:16:53.938Z,23.60
2018-09-13T10:19:28.468Z,23.57
2018-09-13T10:22:02.725Z,21.87
2018-09-13T10:24:36.913Z,20.10
2018-09-13T10:27:11.102Z,20.77
2018-09-13T10:29:45.499Z,20.83
2018-09-13T10:34:25.337Z,20.57
2018-09-13T10:36:59.632Z,20.33
2018-09-13T10:39:34.422Z,22.37
2018-09-13T10:42:08.763Z,20.87
2018-09-13T10:44:43.202Z,21.57
2018-09-13T10:47:17.601Z,20.70
2018-09-13T10:49:51.938Z,21.03
2018-09-13T10:52:25.722Z,21.50
2018-09-13T10:54:55.048Z,23.97
2018-09-13T10:57:29.154Z,22.13
2018-09-13T10:59:58.320Z,21.73
2018-09-13T11:02:27.412Z,22.00
2018-09-13T11:04:56.538Z,22.03
2018-09-13T11:07:25.621Z,20.97
2018-09-13T11:09:54.968Z,22.33
2018-09-13T11:12:28.121Z,23.07
2018-09-13T11:15:04.688Z,22.03
2018-09-13T11:17:33.824Z,21.23
2018-09-13T11:20:02.896Z,21.57
2018-09-13T11:22:31.937Z,20.57
2018-09-13T11:25:01.017Z,20.23
2018-09-13T11:27:30.321Z,19.80
2018-09-13T11:29:59.476Z,16.43
2018-09-13T11:32:28.611Z,16.27
2018-09-13T11:35:07.462Z,16.30
2018-09-13T11:37:36.451Z,16.00
2018-09-13T11:40:06.031Z,16.73
2018-09-13T11:42:36.046Z,15.37
2018-09-13T11:45:05.722Z,13.93
2018-09-13T11:47:35.180Z,8.63
2018-09-13T11:50:04.833Z,7.53
2018-09-13T11:52:33.853Z,7.07
2018-09-13T11:55:02.983Z,13.47
2018-09-13T11:57:32.140Z,12.53
2018-09-13T12:00:02.156Z,12.47
2018-09-13T12:02:31.696Z,11.30
2018-09-13T12:05:01.592Z,7.67
2018-09-13T12:07:30.811Z,8.40
2018-09-13T12:09:59.828Z,11.80
2018-09-13T12:12:29.049Z,13.43
2018-09-13T12:14:58.285Z,13.77
2018-09-13T12:17:27.412Z,14.50
2018-09-13T12:19:56.332Z,12.97
2018-09-13T12:22:25.663Z,12.97
2018-09-13T12:24:54.581Z,13.73
2018-09-13T12:27:23.802Z,13.60
2018-09-13T12:29:52.773Z,14.27
2018-09-13T12:32:21.697Z,8.47
2018-09-13T12:34:50.680Z,8.73
2018-09-13T12:37:19.615Z,8.53
2018-09-13T12:39:48.770Z,8.30
2018-09-13T12:42:17.645Z,9.03
2018-09-13T12:44:46.675Z,9.13
2018-09-13T12:47:16.108Z,10.60
2018-09-13T12:49:45.196Z,10.80
2018-09-13T12:52:14.339Z,11.73
2018-09-13T12:54:43.335Z,11.47
2018-09-13T12:57:12.729Z,6.80
2018-09-13T12:59:41.758Z,7.07
2018-09-13T13:02:10.968Z,8.07
2018-09-13T13:04:39.857Z,7.27
2018-09-13T13:07:09.120Z,6.97
2018-09-13T13:09:38.076Z,7.43
2018-09-13T13:12:07.138Z,7.50
2018-09-13T13:14:36.170Z,8.87
2018-09-13T13:17:05.375Z,10.27
2018-09-13T13:19:34.611Z,9.90
2018-09-13T13:22:03.515Z,10.30
2018-09-13T13:24:32.498Z,8.67
2018-09-13T13:27:01.681Z,8.63
2018-09-13T13:29:30.684Z,9.97
2018-09-13T13:31:59.681Z,10.37
2018-09-13T13:34:28.656Z,11.63
2018-09-13T13:36:57.813Z,12.87
2018-09-13T13:39:26.878Z,15.50
2018-09-13T13:41:55.794Z,16.70
2018-09-13T13:44:24.786Z,15.17
2018-09-13T13:46:53.955Z,14.03
2018-09-13T13:49:22.900Z,14.53
2018-09-13T13:51:52.124Z,14.67
2018-09-13T13:54:21.405Z,14.10
2018-09-13T13:56:50.335Z,15.93
2018-09-13T13:59:19.518Z,13.87
2018-09-13T14:01:48.376Z,14.53
2018-09-13T14:04:17.340Z,13.87
2018-09-13T14:06:46.268Z,13.70
2018-09-13T14:09:15.442Z,14.13
2018-09-13T14:11:44.432Z,13.47
2018-09-13T14:14:13.337Z,12.77
2018-09-13T14:16:42.169Z,13.70
2018-09-13T14:19:11.279Z,13.53
2018-09-13T14:21:41.555Z,12.67
2018-09-13T14:24:10.949Z,12.50
2018-09-13T14:26:39.905Z,11.97
2018-09-13T14:29:08.963Z,12.17
2018-09-13T14:31:37.937Z,11.47
2018-09-13T14:34:07.034Z,11.27
2018-09-13T14:36:36.791Z,10.93
2018-09-13T14:39:08.049Z,12.03
2018-09-13T14:41:37.015Z,12.40
2018-09-13T14:44:06.550Z,12.40
2018-09-13T14:46:36.480Z,12.57
2018-09-13T14:49:05.797Z,11.10
2018-09-13T14:51:34.902Z,10.80
2018-09-13T14:54:03.940Z,11.00
2018-09-13T14:56:32.814Z,9.90
2018-09-13T14:59:01.951Z,9.87
2018-09-13T15:01:30.939Z,10.13
2018-09-13T15:04:00.016Z,10.20
2018-09-13T15:06:28.962Z,11.43
2018-09-13T15:08:57.878Z,12.03
2018-09-13T15:11:27.242Z,11.53
2018-09-13T15:13:56.088Z,11.20
2018-09-13T15:16:25.662Z,10.57
2018-09-13T15:18:54.760Z,10.10
2018-09-13T15:21:23.632Z,10.83
2018-09-13T15:23:52.772Z,10.97
2018-09-13T15:26:21.833Z,10.77
2018-09-13T15:28:50.922Z,10.27
2018-09-13T15:31:20.020Z,11.73
2018-09-13T15:33:48.997Z,11.10
2018-09-13T15:36:17.943Z,11.80
2018-09-13T15:38:47.059Z,10.83
2018-09-13T15:41:16.168Z,11.20
2018-09-13T15:43:45.465Z,11.70
2018-09-13T15:46:14.353Z,11.70
2018-09-13T15:48:43.366Z,11.73
2018-09-13T15:51:12.445Z,12.27
2018-09-13T15:53:41.642Z,12.97
2018-09-13T15:56:10.695Z,12.63
2018-09-13T15:58:39.794Z,12.53
2018-09-13T16:01:10.537Z,13.37
2018-09-13T16:03:40.649Z,12.57
2018-09-13T16:06:11.750Z,13.07
2018-09-13T16:08:42.538Z,13.20
2018-09-13T16:11:12.713Z,11.63
2018-09-13T16:13:43.012Z,12.03
2018-09-13T16:16:13.496Z,11.97
2018-09-13T16:18:43.480Z,11.77
2018-09-13T16:21:14.022Z,11.80
2018-09-13T16:23:44.310Z,11.43
2018-09-13T16:26:14.943Z,10.97
2018-09-13T16:28:46.037Z,11.97
2018-09-13T16:31:16.606Z,11.90
2018-09-13T16:33:47.838Z,11.10
2018-09-13T16:36:29.062Z,11.00
2018-09-13T16:39:04.455Z,11.37
2018-09-13T16:41:41.774Z,10.87
2018-09-13T16:44:14.923Z,10.83
2018-09-13T16:46:49.060Z,10.63
2018-09-13T16:49:17.925Z,11.00
2018-09-13T16:51:46.799Z,11.07
2018-09-13T16:54:15.650Z,11.47
2018-09-13T16:56:44.524Z,11.30
2018-09-13T16:59:13.419Z,11.80
2018-09-13T17:01:42.395Z,11.83
2018-09-13T17:04:11.336Z,11.90
2018-09-13T17:06:40.317Z,12.03
2018-09-13T17:09:10.099Z,12.13
2018-09-13T17:11:39.086Z,12.03
2018-09-13T17:14:08.617Z,12.43
2018-09-13T17:16:37.480Z,12.03
2018-09-13T17:19:06.451Z,11.77
2018-09-13T17:21:35.398Z,11.87
2018-09-13T17:24:04.517Z,11.53
2018-09-13T17:26:34.674Z,11.53
2018-09-13T17:29:03.540Z,11.73
2018-09-13T17:31:32.400Z,12.00
2018-09-13T17:34:01.279Z,11.33
2018-09-13T17:36:30.221Z,11.73
2018-09-13T17:38:59.211Z,12.03
2018-09-13T17:41:28.028Z,11.80
2018-09-13T17:43:56.897Z,12.07
2018-09-13T17:46:26.756Z,11.67
2018-09-13T17:48:55.880Z,11.70
2018-09-13T17:51:24.701Z,12.67
2018-09-13T17:53:53.805Z,13.13
2018-09-13T17:56:22.693Z,12.17
2018-09-13T17:58:51.632Z,11.37
2018-09-13T18:01:20.501Z,13.37
2018-09-13T18:03:49.569Z,11.90
2018-09-13T18:06:18.637Z,12.87
2018-09-13T18:08:47.725Z,12.27
2018-09-13T18:11:16.558Z,13.07
2018-09-13T18:13:45.412Z,12.57
2018-09-13T18:16:14.261Z,12.47
2018-09-13T18:18:43.098Z,12.33
2018-09-13T18:21:11.941Z,13.07
2018-09-13T18:23:40.939Z,12.80
2018-09-13T18:26:09.969Z,13.63
2018-09-13T18:28:38.976Z,12.20
2018-09-13T18:31:07.873Z,12.37
2018-09-13T18:33:36.749Z,13.33
2018-09-13T18:36:05.638Z,13.43
2018-09-13T18:38:34.671Z,13.57
2018-09-13T18:41:03.507Z,14.30
2018-09-13T18:43:32.562Z,13.43
2018-09-13T18:46:01.481Z,14.53
2018-09-13T18:48:30.428Z,15.07
2018-09-13T18:50:59.240Z,14.03
2018-09-13T18:53:28.158Z,14.13
2018-09-13T18:55:57.136Z,14.17
2018-09-13T18:58:26.179Z,14.70
2018-09-13T19:00:55.019Z,15.90
2018-09-13T19:03:23.901Z,15.90
2018-09-13T19:05:52.779Z,15.23
2018-09-13T19:08:21.696Z,15.67
2018-09-13T19:10:50.620Z,16.17
2018-09-13T19:13:19.690Z,16.73
2018-09-13T19:15:48.799Z,17.87
2018-09-13T19:18:17.977Z,17.10
2018-09-13T19:20:47.414Z,16.97
2018-09-13T19:23:16.239Z,18.20
2018-09-13T19:25:45.112Z,16.60
2018-09-13T19:28:14.138Z,17.90
2018-09-13T19:30:42.976Z,17.77
2018-09-13T19:33:12.063Z,18.20
2018-09-13T19:35:40.913Z,17.57
2018-09-13T19:38:10.160Z,17.13
2018-09-13T19:40:39.114Z,17.23
2018-09-13T19:43:08.023Z,17.67
2018-09-13T19:45:36.901Z,17.47
2018-09-13T19:48:06.494Z,17.50
2018-09-13T19:50:35.497Z,18.73
2018-09-13T19:53:04.227Z,18.23
2018-09-13T19:55:33.100Z,18.27
2018-09-13T19:58:01.947Z,17.80
2018-09-13T20:00:30.804Z,19.80
2018-09-13T20:02:59.728Z,19.50
2018-09-13T20:05:28.600Z,18.43
2018-09-13T20:07:57.439Z,19.33
2018-09-13T20:10:26.318Z,18.07
2018-09-13T20:12:55.230Z,18.97
2018-09-13T20:15:24.054Z,18.93
2018-09-13T20:17:52.873Z,19.10
2018-09-13T20:20:21.735Z,19.00
2018-09-13T20:22:50.562Z,18.40
2018-09-13T20:25:19.437Z,19.63
2018-09-13T20:27:48.294Z,19.57
2018-09-13T20:30:17.257Z,19.47
2018-09-13T20:32:46.193Z,19.87
2018-09-13T20:35:15.118Z,19.80
2018-09-13T20:37:43.874Z,19.50
2018-09-13T20:40:12.920Z,19.27
2018-09-13T20:42:41.796Z,20.33
2018-09-13T20:45:10.569Z,18.63
2018-09-13T20:47:40.252Z,18.87
2018-09-13T20:50:09.278Z,18.33
2018-09-13T20:52:38.080Z,18.80
2018-09-13T20:55:13.721Z,18.23
2018-09-13T20:57:42.503Z,19.33
2018-09-13T21:00:15.581Z,18.90
2018-09-13T21:02:44.411Z,18.63
2018-09-13T21:05:13.259Z,18.43
2018-09-13T21:07:42.096Z,19.53
2018-09-13T21:10:11.015Z,19.17
2018-09-13T21:12:39.931Z,18.87
2018-09-13T21:15:09.316Z,19.60
2018-09-13T21:17:38.155Z,18.80
2018-09-13T21:20:07.329Z,18.07
2018-09-13T21:22:36.161Z,18.90
2018-09-13T21:25:05.379Z,19.60
2018-09-13T21:27:34.256Z,18.37
2018-09-13T21:30:03.501Z,19.23
2018-09-13T21:32:32.284Z,19.93
2018-09-13T21:35:01.191Z,18.70
2018-09-13T21:37:30.013Z,18.47
2018-09-13T21:39:58.956Z,18.13
2018-09-13T21:42:27.774Z,17.97
2018-09-13T21:44:56.590Z,18.43
2018-09-13T21:47:25.420Z,17.67
2018-09-13T21:49:54.294Z,18.80
2018-09-13T21:52:23.230Z,19.50
2018-09-13T21:54:52.088Z,19.70
2018-09-13T21:57:20.915Z,19.17
2018-09-13T21:59:49.739Z,20.00
2018-09-13T22:02:18.513Z,19.83
2018-09-13T22:04:47.409Z,20.73
2018-09-13T22:07:16.638Z,21.27
2018-09-13T22:09:45.646Z,22.63
2018-09-13T22:12:14.823Z,19.90
2018-09-13T22:14:43.638Z,21.40
2018-09-13T22:17:12.735Z,21.53
2018-09-13T22:19:41.614Z,20.50
2018-09-13T22:22:10.453Z,20.13
2018-09-13T22:24:39.302Z,21.03
2018-09-13T22:27:08.165Z,21.30
2018-09-13T22:29:37.153Z,20.80
2018-09-13T22:32:06.056Z,21.63
2018-09-13T22:34:35.109Z,21.00
2018-09-13T22:37:03.931Z,22.00
2018-09-13T22:39:32.738Z,20.47
2018-09-13T22:42:01.597Z,21.17
2018-09-13T22:44:34.640Z,22.23
2018-09-13T22:47:03.439Z,21.63
2018-09-13T22:49:32.190Z,21.83
2018-09-13T22:52:01.011Z,22.73
2018-09-13T22:54:29.950Z,23.33
2018-09-13T22:56:58.770Z,22.87
2018-09-13T22:59:27.893Z,24.00
2018-09-13T23:01:57.006Z,23.33
2018-09-13T23:04:25.856Z,24.93
2018-09-13T23:06:54.831Z,24.17
2018-09-13T23:09:23.632Z,22.73
2018-09-13T23:11:52.458Z,23.00
2018-09-13T23:14:21.477Z,24.80
2018-09-13T23:16:50.300Z,26.77
2018-09-13T23:19:19.288Z,27.80
2018-09-13T23:21:48.039Z,25.87
2018-09-13T23:24:16.778Z,27.67
2018-09-13T23:26:45.881Z,27.13
2018-09-13T23:29:15.104Z,26.13
2018-09-13T23:31:43.933Z,28.17
2018-09-13T23:34:12.681Z,29.53
2018-09-13T23:36:41.476Z,29.77
2018-09-13T23:39:10.936Z,29.67
2018-09-13T23:41:40.902Z,30.60
2018-09-13T23:44:09.783Z,30.43
2018-09-13T23:46:38.613Z,31.27
2018-09-13T23:49:07.413Z,31.57
2018-09-13T23:51:36.324Z,31.37
2018-09-13T23:54:05.091Z,31.17
2018-09-13T23:56:34.016Z,32.10
2018-09-13T23:59:02.854Z,33.80
